Time;durP1;ratioP1;P1;durP2;ratioP2;P2;SDS_P1;SDS_P2;PMS_P1;PMS_P2;Temp;Humidity;BMP_temperature;BMP_pressure;BME280_temperature;BME280_humidity;BME280_pressure;Samples;Min_cycle;Max_cycle;Signal;HPM_P1;HPM_P2
2023/04/24 00:00:05;;;;;;;14.00;12.73;;;;;;;12.49;100.00;99984.53;5074848;28;20433;-46
2023/04/24 00:02:33;;;;;;;13.87;12.60;;;;;;;12.48;100.00;99984.78;5074549;28;20449;-45
2023/04/24 00:05:02;;;;;;;13.90;12.80;;;;;;;12.44;100.00;99978.25;5074336;28;20441;-45
2023/04/24 00:07:30;;;;;;;12.77;11.70;;;;;;;12.42;100.00;99959.78;5066738;28;20477;-45
2023/04/24 00:09:58;;;;;;;13.77;12.67;;;;;;;12.37;100.00;99951.59;5073916;28;20477;-47
2023/04/24 00:12:26;;;;;;;14.90;13.57;;;;;;;12.39;100.00;99946.03;5073189;28;20434;-46
2023/04/24 00:14:55;;;;;;;14.93;13.50;;;;;;;12.37;100.00;99948.09;5073899;28;20458;-44
2023/04/24 00:17:23;;;;;;;14.33;12.93;;;;;;;12.36;100.00;99949.16;5065501;28;20466;-47
2023/04/24 00:19:51;;;;;;;14.50;13.23;;;;;;;12.32;100.00;99935.44;5074159;28;20513;-45
2023/04/24 00:22:20;;;;;;;16.63;14.30;;;;;;;12.30;100.00;99940.19;5073739;28;20422;-46
2023/04/24 00:24:48;;;;;;;15.27;13.67;;;;;;;12.30;100.00;99942.06;5074111;28;20441;-46
2023/04/24 00:27:15;;;;;;;15.70;14.10;;;;;;;12.26;100.00;99943.53;5073417;28;20454;-45
2023/04/24 00:29:43;;;;;;;15.37;13.83;;;;;;;12.29;100.00;99935.06;5074363;28;20477;-48
2023/04/24 00:32:12;;;;;;;15.37;13.97;;;;;;;12.21;100.00;99933.53;5073450;28;20435;-48
2023/04/24 00:34:40;;;;;;;21.80;16.40;;;;;;;12.21;100.00;99931.66;5073219;28;20484;-44
2023/04/24 00:37:08;;;;;;;16.90;15.50;;;;;;;12.21;100.00;99936.22;5072575;28;20465;-45
2023/04/24 00:39:36;;;;;;;15.73;14.20;;;;;;;12.15;100.00;99934.44;5073592;28;20430;-46
2023/04/24 00:42:06;;;;;;;16.87;14.63;;;;;;;12.15;100.00;99926.44;5073568;28;20488;-47
2023/04/24 00:44:34;;;;;;;16.10;14.70;;;;;;;12.13;100.00;99940.00;5073366;28;20789;-45
2023/04/24 00:47:02;;;;;;;17.87;16.20;;;;;;;12.03;100.00;99928.22;5073360;28;20454;-45
2023/04/24 00:49:31;;;;;;;15.10;13.83;;;;;;;12.04;100.00;99925.31;5074608;28;20466;-45
2023/04/24 00:51:59;;;;;;;15.90;14.53;;;;;;;12.05;100.00;99918.94;5074131;28;20435;-51
2023/04/24 00:54:26;;;;;;;17.33;15.73;;;;;;;12.03;100.00;99915.69;5074876;28;20435;-46
2023/04/24 00:56:54;;;;;;;16.33;14.83;;;;;;;11.99;100.00;99914.50;5073510;28;20508;-48
2023/04/24 00:59:22;;;;;;;16.23;14.73;;;;;;;12.00;100.00;99907.31;5075525;28;20839;-47
2023/04/24 01:01:50;;;;;;;18.43;16.30;;;;;;;11.98;100.00;99899.50;5077618;28;20936;-45
2023/04/24 01:04:18;;;;;;;17.17;15.70;;;;;;;11.98;100.00;99898.69;5078001;28;20507;-46
2023/04/24 01:06:49;;;;;;;17.77;15.97;;;;;;;11.99;100.00;99889.63;5077977;28;20528;-44
2023/04/24 01:09:21;;;;;;;18.50;16.70;;;;;;;11.98;100.00;99879.97;5070387;28;20478;-48
2023/04/24 01:11:50;;;;;;;19.27;17.57;;;;;;;11.96;100.00;99885.56;5077820;28;20940;-47
2023/04/24 01:14:18;;;;;;;17.00;15.57;;;;;;;11.97;100.00;99891.72;5077917;28;20951;-44
2023/04/24 01:16:46;;;;;;;16.77;15.20;;;;;;;11.97;100.00;99889.88;5077470;28;20449;-47
2023/04/24 01:19:18;;;;;;;19.57;17.53;;;;;;;11.96;100.00;99885.56;5072684;28;20458;-48
2023/04/24 01:21:51;;;;;;;19.00;17.10;;;;;;;11.92;100.00;99880.88;5077748;28;20430;-45
2023/04/24 01:24:21;;;;;;;20.17;18.27;;;;;;;11.88;100.00;99879.72;5077853;28;20421;-44
2023/04/24 01:26:48;;;;;;;18.93;17.13;;;;;;;11.85;100.00;99866.81;5078200;28;20835;-44
2023/04/24 01:29:16;;;;;;;17.40;15.80;;;;;;;11.84;100.00;99857.16;5077715;28;20470;-46
2023/04/24 01:31:44;;;;;;;18.27;16.47;;;;;;;11.83;100.00;99839.50;5078336;28;20430;-45
2023/04/24 01:34:12;;;;;;;19.93;17.80;;;;;;;11.85;100.00;99829.41;5078609;28;20438;-45
2023/04/24 01:36:42;;;;;;;19.40;17.60;;;;;;;11.84;100.00;99823.25;5078052;28;20457;-47
2023/04/24 01:39:10;;;;;;;19.00;17.20;;;;;;;11.85;100.00;99821.41;5077797;28;21070;-46
2023/04/24 01:41:39;;;;;;;17.80;16.20;;;;;;;11.83;100.00;99818.13;5077706;28;20431;-45
2023/04/24 01:44:06;;;;;;;18.40;16.90;;;;;;;11.83;100.00;99820.78;5077365;28;20438;-47
2023/04/24 01:46:35;;;;;;;19.40;17.60;;;;;;;11.82;100.00;99817.31;5077627;28;20458;-48
2023/04/24 01:49:03;;;;;;;19.23;17.50;;;;;;;11.81;100.00;99815.69;5077142;28;20458;-49
2023/04/24 01:51:31;;;;;;;20.90;18.70;;;;;;;11.81;100.00;99823.69;5077421;28;20473;-49
2023/04/24 01:53:59;;;;;;;19.20;17.40;;;;;;;11.79;100.00;99830.31;5077256;28;20872;-44
2023/04/24 01:56:29;;;;;;;20.10;18.17;;;;;;;11.76;100.00;99828.91;5076847;28;20446;-46
2023/04/24 01:58:58;;;;;;;18.13;16.50;;;;;;;11.73;100.00;99825.88;5076726;28;20529;-44
2023/04/24 02:01:26;;;;;;;19.73;17.83;;;;;;;11.68;100.00;99815.03;5076411;28;21162;-44
2023/04/24 02:03:54;;;;;;;18.43;16.73;;;;;;;11.64;100.00;99812.81;5076351;28;20461;-50
2023/04/24 02:06:22;;;;;;;21.97;19.80;;;;;;;11.63;100.00;99823.72;5076701;28;20871;-46
2023/04/24 02:08:49;;;;;;;21.50;19.60;;;;;;;11.58;100.00;99826.25;5075859;28;20466;-46
2023/04/24 02:11:17;;;;;;;19.83;17.93;;;;;;;11.52;100.00;99822.63;5075987;28;20462;-46
2023/04/24 02:13:45;;;;;;;20.70;18.87;;;;;;;11.52;100.00;99817.28;5076448;28;20434;-44
2023/04/24 02:16:14;;;;;;;20.53;18.07;;;;;;;11.49;100.00;99817.72;5075803;28;20422;-46
2023/04/24 02:18:41;;;;;;;21.50;19.60;;;;;;;11.50;100.00;99816.69;5075779;28;21032;-44
2023/04/24 02:21:09;;;;;;;21.47;19.50;;;;;;;11.50;100.00;99802.50;5076168;28;20437;-45
2023/04/24 02:23:37;;;;;;;21.00;19.03;;;;;;;11.50;100.00;99805.19;5075351;28;20450;-45
2023/04/24 02:26:05;;;;;;;21.33;19.17;;;;;;;11.51;100.00;99802.28;5075534;28;20434;-44
2023/04/24 02:28:32;;;;;;;21.60;19.70;;;;;;;11.46;100.00;99802.16;5075595;28;20454;-44
2023/04/24 02:31:00;;;;;;;21.67;19.73;;;;;;;11.48;100.00;99799.25;5075144;28;20470;-51
2023/04/24 02:33:29;;;;;;;21.93;19.77;;;;;;;11.50;100.00;99797.16;5073122;28;20430;-46
2023/04/24 02:35:57;;;;;;;21.60;19.73;;;;;;;11.52;100.00;99787.09;5073222;28;20443;-44
2023/04/24 02:38:24;;;;;;;20.07;18.27;;;;;;;11.57;100.00;99790.72;5071996;28;20776;-45
2023/04/24 02:40:52;;;;;;;20.70;18.97;;;;;;;11.57;100.00;99788.03;5073152;28;20938;-44
2023/04/24 02:43:20;;;;;;;20.00;18.30;;;;;;;11.56;100.00;99775.72;5073081;28;20453;-45
2023/04/24 02:45:47;;;;;;;18.47;16.77;;;;;;;11.57;100.00;99766.69;5071846;28;20450;-44
2023/04/24 02:48:15;;;;;;;18.80;17.20;;;;;;;11.58;100.00;99767.50;5067386;28;20456;-44
2023/04/24 02:50:45;;;;;;;20.23;18.60;;;;;;;11.58;100.00;99773.66;5072013;28;20827;-44
2023/04/24 02:53:12;;;;;;;19.90;18.10;;;;;;;11.59;100.00;99771.78;5071840;28;20430;-46
2023/04/24 02:55:40;;;;;;;19.13;17.53;;;;;;;11.56;100.00;99770.38;5071988;28;20430;-44
2023/04/24 02:58:08;;;;;;;19.13;17.63;;;;;;;11.56;100.00;99767.72;5071181;28;20507;-45
2023/04/24 03:00:35;;;;;;;18.70;16.90;;;;;;;11.58;100.00;99768.31;5072299;28;20789;-44
2023/04/24 03:03:03;;;;;;;19.93;18.20;;;;;;;11.57;100.00;99756.00;5071541;28;20437;-45
2023/04/24 03:05:31;;;;;;;19.70;18.07;;;;;;;11.59;100.00;99759.25;5071168;28;20938;-45
2023/04/24 03:08:00;;;;;;;19.27;17.37;;;;;;;11.59;100.00;99755.75;5071006;28;20446;-44
2023/04/24 03:10:28;;;;;;;17.90;16.40;;;;;;;11.56;100.00;99746.34;5072038;28;20459;-48
2023/04/24 03:12:56;;;;;;;18.67;17.23;;;;;;;11.57;100.00;99755.19;5072169;28;20891;-45
2023/04/24 03:15:23;;;;;;;20.20;18.23;;;;;;;11.58;100.00;99748.81;5071741;28;20956;-45
2023/04/24 03:17:52;;;;;;;19.97;18.37;;;;;;;11.58;100.00;99746.13;5071565;28;21031;-46
2023/04/24 03:20:23;;;;;;;18.63;17.23;;;;;;;11.57;100.00;99747.16;5070931;28;20454;-50
2023/04/24 03:22:51;;;;;;;18.90;17.40;;;;;;;11.57;100.00;99750.66;5070854;28;20435;-52
2023/04/24 03:25:21;;;;;;;19.30;17.80;;;;;;;11.58;100.00;99746.13;5071314;28;20788;-44
2023/04/24 03:27:48;;;;;;;19.37;17.30;;;;;;;11.57;100.00;99741.84;5071948;28;20454;-46
2023/04/24 03:30:16;;;;;;;18.90;17.40;;;;;;;11.57;100.00;99745.31;5071367;28;20478;-44
2023/04/24 03:32:44;;;;;;;18.77;17.37;;;;;;;11.57;100.00;99748.00;5071747;28;20430;-49
2023/04/24 03:35:12;;;;;;;19.00;17.50;;;;;;;11.56;100.00;99750.88;5071683;28;20441;-45
2023/04/24 03:37:39;;;;;;;19.53;18.10;;;;;;;11.53;100.00;99754.81;5070691;28;20446;-45
2023/04/24 03:40:08;;;;;;;19.57;17.80;;;;;;;11.58;100.00;99746.97;5070592;28;20458;-44
2023/04/24 03:42:37;;;;;;;19.27;17.80;;;;;;;11.58;100.00;99746.97;5070905;28;20437;-47
2023/04/24 03:45:07;;;;;;;21.80;20.10;;;;;;;11.60;100.00;99750.22;5070635;28;20445;-47
2023/04/24 03:47:34;;;;;;;21.07;19.40;;;;;;;11.59;100.00;99748.56;5068864;28;20462;-47
2023/04/24 03:50:03;;;;;;;20.10;17.10;;;;;;;11.59;100.00;99747.75;5068537;28;20466;-48
2023/04/24 03:52:30;;;;;;;19.10;17.70;;;;;;;11.60;100.00;99752.06;5070547;28;20426;-46
2023/04/24 03:54:58;;;;;;;18.13;16.73;;;;;;;11.58;100.00;99748.81;5070970;28;20841;-46
2023/04/24 03:57:26;;;;;;;18.67;17.00;;;;;;;11.52;100.00;99747.03;5070380;28;20537;-47
2023/04/24 03:59:55;;;;;;;17.93;16.70;;;;;;;11.55;100.00;99752.75;5070095;28;20462;-45
2023/04/24 04:02:23;;;;;;;16.50;15.40;;;;;;;11.54;100.00;99756.44;5070200;28;20631;-46
2023/04/24 04:04:51;;;;;;;17.80;16.50;;;;;;;11.54;100.00;99744.97;5069810;28;20426;-45
2023/04/24 04:07:19;;;;;;;17.47;16.17;;;;;;;11.52;100.00;99737.19;5070693;28;20454;-46
2023/04/24 04:09:46;;;;;;;17.93;16.37;;;;;;;11.48;100.00;99746.69;5064626;28;20470;-45
2023/04/24 04:12:14;;;;;;;16.77;15.57;;;;;;;11.49;100.00;99742.16;5070127;28;20478;-46
2023/04/24 04:14:41;;;;;;;16.67;15.57;;;;;;;11.49;100.00;99736.81;5071054;28;20441;-45
2023/04/24 04:17:10;;;;;;;15.90;14.80;;;;;;;11.46;100.00;99745.28;5069934;28;20450;-46
2023/04/24 04:19:38;;;;;;;16.40;14.90;;;;;;;11.41;100.00;99737.16;5064756;28;20498;-47
2023/04/24 04:22:07;;;;;;;14.23;13.33;;;;;;;11.43;100.00;99746.56;5070029;28;20431;-44
2023/04/24 04:24:37;;;;;;;14.00;13.00;;;;;;;11.41;100.00;99742.47;5069601;28;20513;-44
2023/04/24 04:27:05;;;;;;;14.10;13.20;;;;;;;11.45;100.00;99744.47;5070505;28;20447;-49
2023/04/24 04:29:34;;;;;;;13.43;12.73;;;;;;;11.46;100.00;99742.63;5069619;28;20856;-44
2023/04/24 04:32:02;;;;;;;12.70;12.00;;;;;;;11.49;100.00;99739.50;5069754;28;20822;-45
2023/04/24 04:34:31;;;;;;;12.87;12.17;;;;;;;11.49;100.00;99744.84;5070612;28;20430;-48
2023/04/24 04:37:00;;;;;;;12.30;11.60;;;;;;;11.51;100.00;99745.41;5070006;28;20533;-46
2023/04/24 04:39:29;;;;;;;12.73;11.97;;;;;;;11.55;100.00;99742.06;5069801;28;20462;-46
2023/04/24 04:41:58;;;;;;;12.93;12.13;;;;;;;11.56;100.00;99741.00;5070231;28;20445;-44
2023/04/24 04:44:27;;;;;;;13.13;12.33;;;;;;;11.56;100.00;99741.00;5069485;28;20427;-43
2023/04/24 04:46:58;;;;;;;14.97;13.40;;;;;;;11.55;100.00;99742.06;5069642;28;20979;-44
2023/04/24 04:49:28;;;;;;;14.10;13.00;;;;;;;11.55;100.00;99747.41;5069007;28;20454;-47
2023/04/24 04:51:57;;;;;;;13.30;12.50;;;;;;;11.59;100.00;99737.88;5070105;28;20470;-48
2023/04/24 04:54:25;;;;;;;11.83;11.20;;;;;;;11.58;100.00;99744.28;5070163;28;20849;-43
2023/04/24 04:56:52;;;;;;;11.73;11.13;;;;;;;11.61;100.00;99741.16;5069918;28;20450;-43
2023/04/24 04:59:20;;;;;;;11.87;11.17;;;;;;;11.62;100.00;99740.09;5070101;28;20429;-44
2023/04/24 05:01:47;;;;;;;11.90;11.33;;;;;;;11.66;100.00;99745.81;5069479;28;20975;-44
2023/04/24 05:04:15;;;;;;;11.90;11.30;;;;;;;11.72;100.00;99749.44;5069679;28;20491;-44
2023/04/24 05:06:43;;;;;;;11.80;11.17;;;;;;;11.82;100.00;99741.72;5069112;28;20488;-44
2023/04/24 05:09:12;;;;;;;11.60;11.03;;;;;;;11.90;100.00;99744.88;5069127;28;20430;-46
2023/04/24 05:11:40;;;;;;;10.97;10.40;;;;;;;11.99;100.00;99737.31;5069906;28;20967;-46
2023/04/24 05:14:08;;;;;;;11.33;10.70;;;;;;;12.19;100.00;99743.97;5069870;28;20438;-46
2023/04/24 05:16:36;;;;;;;11.00;10.10;;;;;;;12.25;100.00;99736.06;5068977;28;20457;-44
2023/04/24 05:19:04;;;;;;;10.70;10.20;;;;;;;12.21;100.00;99744.53;5064903;28;20496;-44
2023/04/24 05:21:32;;;;;;;10.87;10.20;;;;;;;12.16;100.00;99744.44;5069832;28;20438;-44
2023/04/24 05:24:00;;;;;;;10.50;10.00;;;;;;;12.09;100.00;99745.59;5070346;28;20438;-45
2023/04/24 05:26:29;;;;;;;11.70;11.17;;;;;;;12.05;100.00;99750.59;5069721;28;20550;-46
2023/04/24 05:28:57;;;;;;;11.50;11.00;;;;;;;12.01;100.00;99746.75;5069203;28;20422;-43
2023/04/24 05:31:25;;;;;;;11.10;10.60;;;;;;;11.99;100.00;99745.34;5069020;28;20482;-49
2023/04/24 05:33:53;;;;;;;11.73;11.17;;;;;;;11.99;100.00;99745.34;5068706;28;20484;-47
2023/04/24 05:36:21;;;;;;;10.60;10.10;;;;;;;12.08;100.00;99752.81;5068670;28;20450;-49
2023/04/24 05:38:48;;;;;;;10.67;10.17;;;;;;;12.14;100.00;99749.22;5069248;28;20517;-45
2023/04/24 05:41:16;;;;;;;11.00;10.50;;;;;;;12.14;100.00;99751.88;5068258;28;21143;-44
2023/04/24 05:43:45;;;;;;;10.70;10.20;;;;;;;12.17;100.00;99754.09;5069859;28;20435;-50
2023/04/24 05:46:13;;;;;;;11.23;10.63;;;;;;;12.21;100.00;99757.13;5071689;28;20443;-44
2023/04/24 05:48:41;;;;;;;10.20;9.80;;;;;;;12.26;100.00;99754.56;5073165;28;20418;-44
2023/04/24 05:51:10;;;;;;;11.20;10.53;;;;;;;12.20;100.00;99747.47;5067514;28;21176;-46
2023/04/24 05:53:38;;;;;;;11.00;10.40;;;;;;;12.18;100.00;99746.91;5072958;28;20430;-44
2023/04/24 05:56:06;;;;;;;11.13;10.60;;;;;;;12.13;100.00;99749.41;5072930;28;20437;-45
2023/04/24 05:58:33;;;;;;;10.77;10.27;;;;;;;12.08;100.00;99749.31;5073025;28;20437;-49
2023/04/24 06:01:03;;;;;;;10.47;9.97;;;;;;;12.06;100.00;99751.41;5072807;28;20466;-43
2023/04/24 06:03:30;;;;;;;10.77;10.27;;;;;;;12.06;100.00;99756.75;5072128;28;20426;-45
2023/04/24 06:05:58;;;;;;;11.57;10.90;;;;;;;12.06;100.00;99752.22;5072245;28;20920;-44
2023/04/24 06:08:26;;;;;;;11.67;10.97;;;;;;;12.07;100.00;99745.81;5072366;28;20433;-44
2023/04/24 06:10:54;;;;;;;10.80;10.27;;;;;;;12.13;100.00;99750.25;5072190;28;20488;-49
2023/04/24 06:13:22;;;;;;;11.10;10.40;;;;;;;12.28;100.00;99744.44;5072627;28;20470;-44
2023/04/24 06:15:50;;;;;;;11.10;10.60;;;;;;;12.48;100.00;99747.63;5072155;28;20477;-44
2023/04/24 06:18:18;;;;;;;11.37;10.77;;;;;;;12.74;100.00;99741.78;5072493;28;20508;-45
2023/04/24 06:20:46;;;;;;;12.13;11.53;;;;;;;12.97;100.00;99748.94;5071947;28;21474;-44
2023/04/24 06:23:14;;;;;;;10.90;10.30;;;;;;;13.59;100.00;99739.19;5072635;28;20434;-44
2023/04/24 06:25:42;;;;;;;11.50;10.80;;;;;;;13.91;100.00;99736.03;5071909;28;20434;-44
2023/04/24 06:28:09;;;;;;;11.20;10.30;;;;;;;13.83;100.00;99732.66;5071925;28;20453;-44
2023/04/24 06:30:37;;;;;;;11.90;11.40;;;;;;;13.81;100.00;99734.78;5072447;28;20840;-44
2023/04/24 06:33:05;;;;;;;11.73;11.03;;;;;;;13.77;100.00;99724.78;5072427;28;20470;-44
2023/04/24 06:35:48;;;;;;;11.80;11.20;;;;;;;13.71;100.00;99731.91;5073208;28;20901;-44
2023/04/24 06:38:16;;;;;;;11.47;10.80;;;;;;;13.60;100.00;99729.31;5072366;28;20446;-46
2023/04/24 06:40:44;;;;;;;10.87;10.27;;;;;;;13.62;100.00;99730.69;5064945;28;20473;-45
2023/04/24 06:43:12;;;;;;;11.90;11.30;;;;;;;13.53;100.00;99728.66;5072232;28;20518;-44
2023/04/24 06:45:40;;;;;;;11.30;10.70;;;;;;;13.41;100.00;99734.03;5071752;28;20445;-43
2023/04/24 06:48:08;;;;;;;12.50;11.90;;;;;;;13.21;100.00;99731.78;5072254;28;20450;-44
2023/04/24 06:50:36;;;;;;;12.77;12.10;;;;;;;13.24;100.00;99742.03;5065540;28;20553;-44
2023/04/24 06:53:05;;;;;;;12.90;12.20;;;;;;;13.22;100.00;99740.66;5072138;28;20509;-46
2023/04/24 06:55:33;;;;;;;12.00;11.40;;;;;;;13.15;100.00;99743.47;5072620;28;20944;-44
2023/04/24 06:58:00;;;;;;;13.57;12.87;;;;;;;13.11;100.00;99741.50;5070897;28;20518;-45
2023/04/24 07:00:29;;;;;;;12.60;12.00;;;;;;;13.01;100.00;99743.94;5072324;28;20521;-49
2023/04/24 07:02:57;;;;;;;13.10;12.10;;;;;;;12.76;100.00;99738.84;5063692;28;21332;-44
2023/04/24 07:05:25;;;;;;;12.40;11.90;;;;;;;12.63;100.00;99747.94;5072493;28;20850;-44
2023/04/24 07:07:53;;;;;;;11.17;10.67;;;;;;;12.52;100.00;99747.94;5072175;28;20485;-44
2023/04/24 07:10:23;;;;;;;11.77;11.10;;;;;;;12.49;100.00;99741.19;5072330;28;20430;-46
2023/04/24 07:12:50;;;;;;;11.43;10.90;;;;;;;12.63;100.00;99731.88;5071309;28;20475;-46
2023/04/24 07:15:18;;;;;;;11.53;11.00;;;;;;;12.68;100.00;99749.91;5071828;28;20442;-45
2023/04/24 07:17:46;;;;;;;12.40;11.60;;;;;;;12.71;100.00;99733.41;5071590;28;20486;-44
2023/04/24 07:20:15;;;;;;;11.83;10.90;;;;;;;12.78;100.00;99742.91;5071814;28;20433;-47
2023/04/24 07:22:43;;;;;;;12.03;11.40;;;;;;;12.83;100.00;99736.88;5070784;28;21001;-48
2023/04/24 07:25:10;;;;;;;12.20;11.60;;;;;;;12.91;100.00;99735.69;5072139;28;20919;-44
2023/04/24 07:27:39;;;;;;;12.57;11.87;;;;;;;12.87;100.00;99738.03;5071614;28;20545;-44
2023/04/24 07:30:08;;;;;;;10.93;10.37;;;;;;;12.83;100.00;99749.44;5071826;28;20433;-47
2023/04/24 07:32:36;;;;;;;11.50;10.87;;;;;;;12.84;100.00;99748.41;5071066;28;20835;-46
2023/04/24 07:35:04;;;;;;;11.67;11.07;;;;;;;12.73;100.00;99744.66;5071957;28;20968;-43
2023/04/24 07:37:32;;;;;;;12.30;11.70;;;;;;;12.81;100.00;99741.66;5071030;28;20446;-44
2023/04/24 07:40:00;;;;;;;11.50;10.90;;;;;;;12.74;100.00;99746.31;5071166;28;20431;-47
2023/04/24 07:42:30;;;;;;;13.23;12.50;;;;;;;12.86;100.00;99744.44;5070998;28;20545;-48
2023/04/24 07:44:59;;;;;;;12.00;11.40;;;;;;;12.82;100.00;99753.16;5071176;28;20955;-44
2023/04/24 07:47:27;;;;;;;12.17;11.47;;;;;;;12.91;100.00;99755.22;5070218;28;20465;-44
2023/04/24 07:49:55;;;;;;;12.77;12.10;;;;;;;12.84;100.00;99756.41;5071765;28;20437;-49
2023/04/24 07:52:22;;;;;;;12.37;11.57;;;;;;;12.74;100.00;99757.81;5070360;28;20473;-43
2023/04/24 07:54:52;;;;;;;11.53;10.93;;;;;;;12.64;100.00;99764.78;5070422;28;20438;-47
2023/04/24 07:57:20;;;;;;;11.70;11.10;;;;;;;12.68;100.00;99768.63;5070492;28;20545;-50
2023/04/24 07:59:47;;;;;;;11.67;10.70;;;;;;;12.84;100.00;99767.13;5071302;28;20450;-44
2023/04/24 08:02:16;;;;;;;12.90;11.83;;;;;;;13.10;100.00;99772.00;5068325;28;20840;-45
2023/04/24 08:04:44;;;;;;;12.13;11.43;;;;;;;13.61;100.00;99753.19;5071534;28;20484;-49
2023/04/24 08:07:12;;;;;;;11.53;10.93;;;;;;;14.01;100.00;99757.66;5070433;28;20458;-45
2023/04/24 08:09:40;;;;;;;11.07;10.57;;;;;;;14.29;100.00;99760.25;5070697;28;20461;-45
2023/04/24 08:12:08;;;;;;;11.70;11.10;;;;;;;14.31;100.00;99760.78;5069956;28;20482;-49
2023/04/24 08:14:35;;;;;;;11.30;10.80;;;;;;;14.15;100.00;99767.00;5070979;28;20474;-51
2023/04/24 08:17:03;;;;;;;12.47;11.60;;;;;;;13.92;100.00;99769.81;5070977;28;20982;-44
2023/04/24 08:19:32;;;;;;;12.27;11.57;;;;;;;13.81;100.00;99764.25;5071212;28;20430;-46
2023/04/24 08:22:00;;;;;;;12.23;11.60;;;;;;;13.73;100.00;99775.38;5061767;28;20550;-46
2023/04/24 08:24:28;;;;;;;11.60;11.00;;;;;;;13.58;100.00;99775.09;5070727;28;20422;-44
2023/04/24 08:26:57;;;;;;;11.40;10.83;;;;;;;13.47;100.00;99789.31;5071149;28;20455;-45
2023/04/24 08:29:26;;;;;;;12.17;11.50;;;;;;;13.28;100.00;99790.56;5070046;28;20426;-47
2023/04/24 08:31:55;;;;;;;13.50;12.70;;;;;;;13.06;100.00;99798.38;5069764;28;20479;-44
2023/04/24 08:34:23;;;;;;;13.37;12.47;;;;;;;13.00;100.00;99799.31;5058021;28;21061;-44
2023/04/24 08:36:52;;;;;;;14.10;13.20;;;;;;;13.01;100.00;99806.31;5070643;28;20530;-49
2023/04/24 08:39:20;;;;;;;14.57;13.67;;;;;;;12.93;100.00;99803.97;5070488;28;20481;-43
2023/04/24 08:41:49;;;;;;;14.70;13.67;;;;;;;12.89;100.00;99804.69;5069857;28;20935;-47
2023/04/24 08:44:17;;;;;;;13.50;12.70;;;;;;;12.89;100.00;99802.00;5069802;28;20525;-49
2023/04/24 08:46:48;;;;;;;13.07;12.17;;;;;;;12.92;100.00;99813.06;5070022;28;20462;-46
2023/04/24 08:49:17;;;;;;;13.40;12.47;;;;;;;12.97;100.00;99813.16;5070898;28;20480;-49
2023/04/24 08:51:46;;;;;;;12.80;12.00;;;;;;;13.08;100.00;99812.34;5070496;28;20419;-50
2023/04/24 08:54:15;;;;;;;13.17;12.37;;;;;;;13.09;100.00;99805.16;5070183;28;20466;-48
2023/04/24 08:56:45;;;;;;;12.97;12.20;;;;;;;13.06;100.00;99819.78;5070713;28;20452;-46
2023/04/24 08:59:13;;;;;;;12.43;11.63;;;;;;;13.08;100.00;99819.59;5070186;28;20418;-45
2023/04/24 09:01:41;;;;;;;13.00;12.13;;;;;;;12.98;100.00;99822.84;5069933;28;20943;-46
2023/04/24 09:04:11;;;;;;;12.73;12.00;;;;;;;12.97;100.00;99823.88;5065536;28;20462;-49
2023/04/24 09:06:40;;;;;;;12.23;11.47;;;;;;;12.86;100.00;99830.06;5070285;28;20446;-46
2023/04/24 09:09:11;;;;;;;12.10;11.47;;;;;;;12.78;100.00;99822.38;5070445;28;20478;-45
2023/04/24 09:11:41;;;;;;;12.73;11.83;;;;;;;12.86;100.00;99824.69;5070085;28;20430;-47
2023/04/24 09:14:10;;;;;;;12.33;11.53;;;;;;;12.99;100.00;99829.78;5069925;28;20914;-45
2023/04/24 09:16:38;;;;;;;12.07;11.30;;;;;;;13.26;100.00;99827.47;5069944;28;20988;-49
2023/04/24 09:19:05;;;;;;;12.43;11.73;;;;;;;13.45;100.00;99825.44;5069855;28;20844;-46
2023/04/24 09:21:34;;;;;;;11.70;11.00;;;;;;;13.58;100.00;99817.16;5073692;28;20534;-45
2023/04/24 09:24:04;;;;;;;12.10;11.50;;;;;;;13.64;100.00;99816.19;5073039;28;21030;-44
2023/04/24 09:26:33;;;;;;;11.97;11.17;;;;;;;13.65;100.00;99815.94;5073971;28;21179;-45
2023/04/24 09:29:03;;;;;;;10.93;10.33;;;;;;;13.71;100.00;99811.47;5073523;28;20423;-44
2023/04/24 09:31:31;;;;;;;11.43;10.77;;;;;;;13.66;100.00;99817.56;5073991;28;20912;-44
2023/04/24 09:34:03;;;;;;;11.87;11.17;;;;;;;13.89;100.00;99813.19;5070425;28;20648;-47
2023/04/24 09:36:36;;;;;;;12.13;11.53;;;;;;;13.84;100.00;99809.34;5073032;28;20445;-45
2023/04/24 09:39:07;;;;;;;11.33;10.57;;;;;;;13.90;100.00;99809.44;5073592;28;20470;-45
2023/04/24 09:41:35;;;;;;;12.23;11.53;;;;;;;13.82;100.00;99824.03;5073335;28;20948;-44
2023/04/24 09:44:15;;;;;;;11.37;10.67;;;;;;;13.86;100.00;99827.84;5072782;28;20828;-47
2023/04/24 09:46:44;;;;;;;11.93;11.23;;;;;;;14.10;100.00;99815.97;5073490;28;20491;-45
2023/04/24 09:49:16;;;;;;;12.20;11.33;;;;;;;14.22;100.00;99814.03;5073237;28;20461;-44
2023/04/24 09:51:44;;;;;;;12.50;11.70;;;;;;;14.30;100.00;99820.88;5073783;28;20422;-47
2023/04/24 09:54:16;;;;;;;11.50;10.60;;;;;;;14.24;100.00;99822.66;5065826;28;20507;-47
2023/04/24 09:56:46;;;;;;;11.60;11.00;;;;;;;14.12;100.00;99813.88;5073542;28;20496;-46
2023/04/24 09:59:15;;;;;;;12.23;11.60;;;;;;;14.01;100.00;99813.94;5073156;28;20513;-46
2023/04/24 10:01:44;;;;;;;10.37;9.77;;;;;;;13.84;100.00;99819.25;5073494;28;20873;-47
2023/04/24 10:04:19;;;;;;;11.37;10.57;;;;;;;13.73;100.00;99828.16;5067225;28;20490;-45
2023/04/24 10:06:48;;;;;;;12.03;11.13;;;;;;;13.61;100.00;99830.88;5073217;28;20464;-44
2023/04/24 10:09:17;;;;;;;10.90;10.13;;;;;;;13.44;100.00;99846.03;5072407;28;20530;-47
2023/04/24 10:11:47;;;;;;;11.47;10.77;;;;;;;13.34;100.00;99842.34;5072206;28;20434;-47
2023/04/24 10:14:20;;;;;;;12.60;11.70;;;;;;;13.22;100.00;99843.19;5072743;28;20517;-44
2023/04/24 10:16:49;;;;;;;11.33;10.73;;;;;;;13.25;100.00;99847.28;5072983;28;20869;-45
2023/04/24 10:19:19;;;;;;;11.80;11.17;;;;;;;13.25;100.00;99847.28;5072913;28;20425;-43
2023/04/24 10:21:47;;;;;;;12.10;11.40;;;;;;;13.32;100.00;99847.94;5073080;28;20913;-43
2023/04/24 10:24:16;;;;;;;11.33;10.73;;;;;;;13.37;100.00;99849.91;5064964;28;21105;-43
2023/04/24 10:26:45;;;;;;;13.30;12.30;;;;;;;13.38;100.00;99849.66;5073259;28;20460;-43
2023/04/24 10:29:15;;;;;;;12.57;11.67;;;;;;;13.27;100.00;99848.66;5073537;28;20438;-44
2023/04/24 10:31:45;;;;;;;12.03;11.33;;;;;;;13.41;100.00;99854.56;5072323;28;20521;-46
2023/04/24 10:34:15;;;;;;;12.27;11.57;;;;;;;13.38;100.00;99848.88;5065082;28;20640;-44
2023/04/24 10:36:48;;;;;;;13.13;12.33;;;;;;;13.37;100.00;99853.41;5072280;28;20442;-43
2023/04/24 10:39:17;;;;;;;11.83;11.00;;;;;;;13.27;100.00;99859.38;5072340;28;20430;-46
2023/04/24 10:41:46;;;;;;;13.10;12.13;;;;;;;13.32;100.00;99845.25;5072788;28;20509;-44
2023/04/24 10:44:15;;;;;;;13.30;12.27;;;;;;;13.37;100.00;99852.59;5071545;28;20483;-43
2023/04/24 10:46:47;;;;;;;13.90;13.00;;;;;;;13.45;100.00;99857.56;5072363;28;20843;-45
2023/04/24 10:49:15;;;;;;;13.87;12.97;;;;;;;13.47;100.00;99858.97;5072918;28;20415;-44
2023/04/24 10:51:48;;;;;;;13.97;13.07;;;;;;;13.43;100.00;99865.88;5072336;28;20591;-49
2023/04/24 10:54:27;;;;;;;14.10;13.00;;;;;;;13.52;100.00;99863.63;5072735;28;20474;-45
2023/04/24 10:57:15;;;;;;;14.03;13.07;;;;;;;13.51;100.00;99870.03;5072658;28;20831;-44
2023/04/24 10:59:44;;;;;;;14.40;13.23;;;;;;;13.51;100.00;99873.53;5072131;28;20430;-43
2023/04/24 11:02:11;;;;;;;15.17;14.07;;;;;;;13.60;100.00;99869.44;5072034;28;20427;-44
2023/04/24 11:04:39;;;;;;;14.90;13.60;;;;;;;13.80;100.00;99871.69;5072049;28;20458;-44
2023/04/24 11:07:07;;;;;;;12.30;11.50;;;;;;;13.81;100.00;99873.31;5072092;28;20550;-48
2023/04/24 11:09:36;;;;;;;13.03;12.00;;;;;;;13.67;100.00;99875.47;5071708;28;20442;-45
2023/04/24 11:12:06;;;;;;;12.47;11.77;;;;;;;13.66;100.00;99873.00;5072371;28;20456;-44
2023/04/24 11:15:02;;;;;;;13.30;12.20;;;;;;;13.68;100.00;99870.91;5071930;28;20934;-47